sensor_id;sensor_type;location;lat;lon;timestamp;temperature;humidity
10278;DHT22;5184;51.376;7.148;2023-02-15T00:00:31;4.50;99.90
10278;DHT22;5184;51.376;7.148;2023-02-15T00:02:58;4.50;99.90
10278;DHT22;5184;51.376;7.148;2023-02-15T00:05:24;4.40;1.00
10278;DHT22;5184;51.376;7.148;2023-02-15T00:07:52;4.30;99.90
10278;DHT22;5184;51.376;7.148;2023-02-15T00:10:18;4.30;99.90
10278;DHT22;5184;51.376;7.148;2023-02-15T00:12:45;4.20;20.50
10278;DHT22;5184;51.376;7.148;2023-02-15T00:15:12;4.00;4.20
10278;DHT22;5184;51.376;7.148;2023-02-15T00:17:38;3.90;99.90
10278;DHT22;5184;51.376;7.148;2023-02-15T00:20:06;3.70;1.00
10278;DHT22;5184;51.376;7.148;2023-02-15T00:22:33;3.70;1.00
10278;DHT22;5184;51.376;7.148;2023-02-15T00:25:00;3.60;97.10
10278;DHT22;5184;51.376;7.148;2023-02-15T00:27:26;3.60;99.90
10278;DHT22;5184;51.376;7.148;2023-02-15T00:29:53;3.60;1.00
10278;DHT22;5184;51.376;7.148;2023-02-15T00:32:19;3.60;1.00
10278;DHT22;5184;51.376;7.148;2023-02-15T00:34:46;3.50;99.90
10278;DHT22;5184;51.376;7.148;2023-02-15T00:37:13;3.30;1.00
10278;DHT22;5184;51.376;7.148;2023-02-15T00:39:41;3.30;12.70
10278;DHT22;5184;51.376;7.148;2023-02-15T00:42:08;3.20;99.90
10278;DHT22;5184;51.376;7.148;2023-02-15T00:44:35;3.20;99.90
10278;DHT22;5184;51.376;7.148;2023-02-15T00:47:01;3.10;1.00
10278;DHT22;5184;51.376;7.148;2023-02-15T00:49:28;3.00;1.00
10278;DHT22;5184;51.376;7.148;2023-02-15T00:51:54;2.90;99.90
10278;DHT22;5184;51.376;7.148;2023-02-15T00:54:21;2.80;99.90
10278;DHT22;5184;51.376;7.148;2023-02-15T00:56:48;2.70;99.90
10278;DHT22;5184;51.376;7.148;2023-02-15T00:59:15;2.60;99.90
10278;DHT22;5184;51.376;7.148;2023-02-15T01:01:42;2.60;1.00
10278;DHT22;5184;51.376;7.148;2023-02-15T01:04:08;2.50;48.20
10278;DHT22;5184;51.376;7.148;2023-02-15T01:06:36;2.40;1.00
10278;DHT22;5184;51.376;7.148;2023-02-15T01:09:02;2.30;1.00
10278;DHT22;5184;51.376;7.148;2023-02-15T01:11:29;2.30;99.90
10278;DHT22;5184;51.376;7.148;2023-02-15T01:13:56;2.30;99.90
10278;DHT22;5184;51.376;7.148;2023-02-15T01:16:23;2.30;99.90
10278;DHT22;5184;51.376;7.148;2023-02-15T01:18:50;2.20;1.00
10278;DHT22;5184;51.376;7.148;2023-02-15T01:21:18;2.10;1.00
10278;DHT22;5184;51.376;7.148;2023-02-15T01:23:44;2.10;1.00
10278;DHT22;5184;51.376;7.148;2023-02-15T01:26:11;2.00;1.00
10278;DHT22;5184;51.376;7.148;2023-02-15T01:28:37;2.00;58.20
10278;DHT22;5184;51.376;7.148;2023-02-15T01:31:06;2.00;99.90
10278;DHT22;5184;51.376;7.148;2023-02-15T01:33:33;2.10;1.00
10278;DHT22;5184;51.376;7.148;2023-02-15T01:35:59;2.10;1.00
10278;DHT22;5184;51.376;7.148;2023-02-15T01:38:26;2.10;1.00
10278;DHT22;5184;51.376;7.148;2023-02-15T01:40:53;2.10;1.00
10278;DHT22;5184;51.376;7.148;2023-02-15T01:43:19;2.10;1.00
10278;DHT22;5184;51.376;7.148;2023-02-15T01:45:47;2.00;1.00
10278;DHT22;5184;51.376;7.148;2023-02-15T01:48:24;2.00;99.90
10278;DHT22;5184;51.376;7.148;2023-02-15T01:50:55;1.90;99.90
10278;DHT22;5184;51.376;7.148;2023-02-15T01:53:24;1.90;99.90
10278;DHT22;5184;51.376;7.148;2023-02-15T01:55:53;1.80;99.90
10278;DHT22;5184;51.376;7.148;2023-02-15T01:58:17;1.80;1.00
10278;DHT22;5184;51.376;7.148;2023-02-15T02:00:43;1.80;1.00
10278;DHT22;5184;51.376;7.148;2023-02-15T02:03:11;1.70;1.00
10278;DHT22;5184;51.376;7.148;2023-02-15T02:05:38;1.80;1.00
10278;DHT22;5184;51.376;7.148;2023-02-15T02:08:06;1.80;1.00
10278;DHT22;5184;51.376;7.148;2023-02-15T02:10:32;1.70;1.00
10278;DHT22;5184;51.376;7.148;2023-02-15T02:13:00;1.70;1.00
10278;DHT22;5184;51.376;7.148;2023-02-15T02:16:01;1.70;1.00
10278;DHT22;5184;51.376;7.148;2023-02-15T02:18:14;1.70;1.00
10278;DHT22;5184;51.376;7.148;2023-02-15T02:20:44;1.70;1.00
10278;DHT22;5184;51.376;7.148;2023-02-15T02:23:15;1.70;1.00
10278;DHT22;5184;51.376;7.148;2023-02-15T02:25:45;1.60;54.70
10278;DHT22;5184;51.376;7.148;2023-02-15T02:31:38;1.60;99.90
10278;DHT22;5184;51.376;7.148;2023-02-15T02:34:12;1.50;99.90
10278;DHT22;5184;51.376;7.148;2023-02-15T02:36:48;1.40;99.90
10278;DHT22;5184;51.376;7.148;2023-02-15T02:39:23;1.40;99.90
10278;DHT22;5184;51.376;7.148;2023-02-15T02:42:13;1.40;99.90
10278;DHT22;5184;51.376;7.148;2023-02-15T02:44:54;1.30;99.90
10278;DHT22;5184;51.376;7.148;2023-02-15T02:47:31;1.30;99.90
10278;DHT22;5184;51.376;7.148;2023-02-15T02:49:59;1.30;99.90
10278;DHT22;5184;51.376;7.148;2023-02-15T02:52:34;1.20;99.90
10278;DHT22;5184;51.376;7.148;2023-02-15T02:54:58;1.20;99.90
10278;DHT22;5184;51.376;7.148;2023-02-15T02:57:25;1.20;99.90
10278;DHT22;5184;51.376;7.148;2023-02-15T02:59:51;1.20;99.90
10278;DHT22;5184;51.376;7.148;2023-02-15T03:02:21;1.20;1.00
10278;DHT22;5184;51.376;7.148;2023-02-15T03:04:48;1.20;1.00
10278;DHT22;5184;51.376;7.148;2023-02-15T03:07:16;1.10;1.00
10278;DHT22;5184;51.376;7.148;2023-02-15T03:09:42;1.10;1.00
10278;DHT22;5184;51.376;7.148;2023-02-15T03:12:13;0.90;1.00
10278;DHT22;5184;51.376;7.148;2023-02-15T03:14:39;1.10;1.00
10278;DHT22;5184;51.376;7.148;2023-02-15T03:17:05;1.10;1.00
10278;DHT22;5184;51.376;7.148;2023-02-15T03:19:32;1.00;1.00
10278;DHT22;5184;51.376;7.148;2023-02-15T03:22:01;1.10;1.00
10278;DHT22;5184;51.376;7.148;2023-02-15T03:24:35;1.10;1.00
10278;DHT22;5184;51.376;7.148;2023-02-15T03:27:02;1.10;1.00
10278;DHT22;5184;51.376;7.148;2023-02-15T03:29:27;1.00;1.00
10278;DHT22;5184;51.376;7.148;2023-02-15T03:31:56;1.00;1.00
10278;DHT22;5184;51.376;7.148;2023-02-15T03:34:22;1.00;1.00
10278;DHT22;5184;51.376;7.148;2023-02-15T03:36:52;0.90;1.00
10278;DHT22;5184;51.376;7.148;2023-02-15T03:39:27;0.90;1.00
10278;DHT22;5184;51.376;7.148;2023-02-15T03:42:13;0.90;1.00
10278;DHT22;5184;51.376;7.148;2023-02-15T03:44:46;0.90;1.00
10278;DHT22;5184;51.376;7.148;2023-02-15T03:47:10;0.90;1.00
10278;DHT22;5184;51.376;7.148;2023-02-15T03:49:42;0.90;1.00
10278;DHT22;5184;51.376;7.148;2023-02-15T03:52:05;0.90;1.00
10278;DHT22;5184;51.376;7.148;2023-02-15T03:54:32;0.90;1.00
10278;DHT22;5184;51.376;7.148;2023-02-15T03:57:05;0.90;1.00
10278;DHT22;5184;51.376;7.148;2023-02-15T03:59:37;0.90;1.00
10278;DHT22;5184;51.376;7.148;2023-02-15T04:02:15;0.80;1.00
10278;DHT22;5184;51.376;7.148;2023-02-15T04:04:41;1.40;1.00
10278;DHT22;5184;51.376;7.148;2023-02-15T04:07:06;0.90;1.00
10278;DHT22;5184;51.376;7.148;2023-02-15T04:09:32;0.90;1.00
10278;DHT22;5184;51.376;7.148;2023-02-15T04:12:05;0.90;1.00
10278;DHT22;5184;51.376;7.148;2023-02-15T04:14:32;0.80;1.00
10278;DHT22;5184;51.376;7.148;2023-02-15T04:17:06;0.80;1.00
10278;DHT22;5184;51.376;7.148;2023-02-15T04:19:33;0.80;1.00
10278;DHT22;5184;51.376;7.148;2023-02-15T04:22:06;0.80;1.00
10278;DHT22;5184;51.376;7.148;2023-02-15T04:24:38;0.80;1.00
10278;DHT22;5184;51.376;7.148;2023-02-15T04:27:10;0.70;1.00
10278;DHT22;5184;51.376;7.148;2023-02-15T04:29:38;0.70;1.00
10278;DHT22;5184;51.376;7.148;2023-02-15T04:32:05;0.70;1.00
10278;DHT22;5184;51.376;7.148;2023-02-15T04:34:32;0.60;1.00
10278;DHT22;5184;51.376;7.148;2023-02-15T04:36:58;0.70;1.00
10278;DHT22;5184;51.376;7.148;2023-02-15T04:39:25;0.60;1.00
10278;DHT22;5184;51.376;7.148;2023-02-15T04:41:51;0.60;1.00
10278;DHT22;5184;51.376;7.148;2023-02-15T04:44:19;0.60;1.00
10278;DHT22;5184;51.376;7.148;2023-02-15T04:46:46;0.60;1.00
10278;DHT22;5184;51.376;7.148;2023-02-15T04:49:12;0.60;1.00
10278;DHT22;5184;51.376;7.148;2023-02-15T04:51:39;0.60;1.00
10278;DHT22;5184;51.376;7.148;2023-02-15T04:54:07;0.60;1.00
10278;DHT22;5184;51.376;7.148;2023-02-15T04:56:34;0.60;1.00
10278;DHT22;5184;51.376;7.148;2023-02-15T04:59:01;0.60;1.00
10278;DHT22;5184;51.376;7.148;2023-02-15T05:01:27;0.60;1.00
10278;DHT22;5184;51.376;7.148;2023-02-15T05:03:54;0.60;1.00
10278;DHT22;5184;51.376;7.148;2023-02-15T05:06:21;0.60;1.00
10278;DHT22;5184;51.376;7.148;2023-02-15T05:08:52;0.50;1.00
10278;DHT22;5184;51.376;7.148;2023-02-15T05:11:19;0.60;1.00
10278;DHT22;5184;51.376;7.148;2023-02-15T05:13:45;0.60;1.00
10278;DHT22;5184;51.376;7.148;2023-02-15T05:16:12;0.50;1.00
10278;DHT22;5184;51.376;7.148;2023-02-15T05:18:39;0.60;1.00
10278;DHT22;5184;51.376;7.148;2023-02-15T05:21:06;0.50;1.00
10278;DHT22;5184;51.376;7.148;2023-02-15T05:23:33;0.50;1.00
10278;DHT22;5184;51.376;7.148;2023-02-15T05:26:00;0.50;1.00
10278;DHT22;5184;51.376;7.148;2023-02-15T05:28:33;0.50;1.00
10278;DHT22;5184;51.376;7.148;2023-02-15T05:31:03;0.50;1.00
10278;DHT22;5184;51.376;7.148;2023-02-15T05:33:29;0.40;1.00
10278;DHT22;5184;51.376;7.148;2023-02-15T05:35:56;0.40;1.00
10278;DHT22;5184;51.376;7.148;2023-02-15T05:38:24;0.40;1.00
10278;DHT22;5184;51.376;7.148;2023-02-15T05:40:51;0.40;1.00
10278;DHT22;5184;51.376;7.148;2023-02-15T05:43:18;0.40;1.00
10278;DHT22;5184;51.376;7.148;2023-02-15T05:45:46;0.30;1.00
10278;DHT22;5184;51.376;7.148;2023-02-15T05:48:12;0.30;1.00
10278;DHT22;5184;51.376;7.148;2023-02-15T05:50:39;0.30;1.00
10278;DHT22;5184;51.376;7.148;2023-02-15T05:53:06;0.30;1.00
10278;DHT22;5184;51.376;7.148;2023-02-15T05:55:32;0.30;1.00
10278;DHT22;5184;51.376;7.148;2023-02-15T05:57:59;0.30;1.00
10278;DHT22;5184;51.376;7.148;2023-02-15T06:00:26;0.30;1.00
10278;DHT22;5184;51.376;7.148;2023-02-15T06:02:52;0.30;1.00
10278;DHT22;5184;51.376;7.148;2023-02-15T06:05:20;0.20;2.40
10278;DHT22;5184;51.376;7.148;2023-02-15T06:07:48;0.20;4.30
10278;DHT22;5184;51.376;7.148;2023-02-15T06:10:15;0.20;3.80
10278;DHT22;5184;51.376;7.148;2023-02-15T06:12:41;0.20;7.20
10278;DHT22;5184;51.376;7.148;2023-02-15T06:15:09;0.20;11.00
10278;DHT22;5184;51.376;7.148;2023-02-15T06:17:35;0.20;11.00
10278;DHT22;5184;51.376;7.148;2023-02-15T06:20:04;0.20;20.40
10278;DHT22;5184;51.376;7.148;2023-02-15T06:22:31;0.20;19.90
10278;DHT22;5184;51.376;7.148;2023-02-15T06:24:58;0.30;29.70
10278;DHT22;5184;51.376;7.148;2023-02-15T06:27:25;0.30;28.90
10278;DHT22;5184;51.376;7.148;2023-02-15T06:29:52;0.30;33.80
10278;DHT22;5184;51.376;7.148;2023-02-15T06:32:18;0.30;37.00
10278;DHT22;5184;51.376;7.148;2023-02-15T06:34:45;0.40;42.70
10278;DHT22;5184;51.376;7.148;2023-02-15T06:37:11;0.40;37.30
10278;DHT22;5184;51.376;7.148;2023-02-15T06:39:38;0.80;39.70
10278;DHT22;5184;51.376;7.148;2023-02-15T06:42:05;0.40;37.40
10278;DHT22;5184;51.376;7.148;2023-02-15T06:44:31;0.40;35.00
10278;DHT22;5184;51.376;7.148;2023-02-15T06:46:58;0.40;38.30
10278;DHT22;5184;51.376;7.148;2023-02-15T06:49:25;0.40;41.10
10278;DHT22;5184;51.376;7.148;2023-02-15T06:51:51;0.50;47.50
10278;DHT22;5184;51.376;7.148;2023-02-15T06:54:19;0.50;66.10
10278;DHT22;5184;51.376;7.148;2023-02-15T06:56:46;0.60;66.80
10278;DHT22;5184;51.376;7.148;2023-02-15T06:59:13;0.60;63.90
10278;DHT22;5184;51.376;7.148;2023-02-15T07:01:40;0.60;63.70
10278;DHT22;5184;51.376;7.148;2023-02-15T07:04:07;0.60;62.70
10278;DHT22;5184;51.376;7.148;2023-02-15T07:06:33;0.60;59.30
10278;DHT22;5184;51.376;7.148;2023-02-15T07:09:00;0.60;69.10
10278;DHT22;5184;51.376;7.148;2023-02-15T07:11:26;0.60;70.80
10278;DHT22;5184;51.376;7.148;2023-02-15T07:13:59;0.60;81.60
10278;DHT22;5184;51.376;7.148;2023-02-15T07:16:26;0.70;95.10
10278;DHT22;5184;51.376;7.148;2023-02-15T07:18:54;0.80;98.10
10278;DHT22;5184;51.376;7.148;2023-02-15T07:21:21;0.80;99.90
10278;DHT22;5184;51.376;7.148;2023-02-15T07:23:48;0.80;99.90
10278;DHT22;5184;51.376;7.148;2023-02-15T07:26:14;0.90;99.90
10278;DHT22;5184;51.376;7.148;2023-02-15T07:28:41;0.90;99.90
10278;DHT22;5184;51.376;7.148;2023-02-15T07:31:08;0.90;98.40
10278;DHT22;5184;51.376;7.148;2023-02-15T07:33:34;1.00;95.00
10278;DHT22;5184;51.376;7.148;2023-02-15T07:36:03;1.00;89.20
10278;DHT22;5184;51.376;7.148;2023-02-15T07:38:31;1.00;89.10
10278;DHT22;5184;51.376;7.148;2023-02-15T07:40:58;1.00;89.50
10278;DHT22;5184;51.376;7.148;2023-02-15T07:43:25;1.10;78.30
10278;DHT22;5184;51.376;7.148;2023-02-15T07:45:52;1.10;77.90
10278;DHT22;5184;51.376;7.148;2023-02-15T07:48:19;1.10;77.70
10278;DHT22;5184;51.376;7.148;2023-02-15T07:50:45;1.10;80.20
10278;DHT22;5184;51.376;7.148;2023-02-15T07:53:12;1.20;81.40
10278;DHT22;5184;51.376;7.148;2023-02-15T07:55:39;1.30;67.80
10278;DHT22;5184;51.376;7.148;2023-02-15T07:58:07;1.30;64.70
10278;DHT22;5184;51.376;7.148;2023-02-15T08:00:34;1.30;55.60
10278;DHT22;5184;51.376;7.148;2023-02-15T08:03:01;1.30;55.20
10278;DHT22;5184;51.376;7.148;2023-02-15T08:05:33;1.30;56.60
10278;DHT22;5184;51.376;7.148;2023-02-15T08:08:00;1.40;49.70
10278;DHT22;5184;51.376;7.148;2023-02-15T08:10:28;1.70;99.70
10278;DHT22;5184;51.376;7.148;2023-02-15T08:13:00;1.70;99.60
10278;DHT22;5184;51.376;7.148;2023-02-15T08:15:27;1.90;42.60
10278;DHT22;5184;51.376;7.148;2023-02-15T08:17:55;1.80;26.50
10278;DHT22;5184;51.376;7.148;2023-02-15T08:20:22;1.80;18.10
10278;DHT22;5184;51.376;7.148;2023-02-15T08:22:49;1.80;18.50
10278;DHT22;5184;51.376;7.148;2023-02-15T08:25:15;1.90;23.10
10278;DHT22;5184;51.376;7.148;2023-02-15T08:27:42;1.80;12.70
10278;DHT22;5184;51.376;7.148;2023-02-15T08:30:10;1.80;8.90
10278;DHT22;5184;51.376;7.148;2023-02-15T08:32:37;1.80;9.10
10278;DHT22;5184;51.376;7.148;2023-02-15T08:35:05;1.90;13.40
10278;DHT22;5184;51.376;7.148;2023-02-15T08:37:31;1.90;13.40
10278;DHT22;5184;51.376;7.148;2023-02-15T08:39:58;2.20;84.10
10278;DHT22;5184;51.376;7.148;2023-02-15T08:42:24;2.80;99.90
10278;DHT22;5184;51.376;7.148;2023-02-15T08:44:52;3.20;99.90
10278;DHT22;5184;51.376;7.148;2023-02-15T08:47:19;3.20;99.90
10278;DHT22;5184;51.376;7.148;2023-02-15T08:49:45;4.40;99.90
10278;DHT22;5184;51.376;7.148;2023-02-15T08:52:12;4.70;69.20
10278;DHT22;5184;51.376;7.148;2023-02-15T08:54:38;4.50;1.00
10278;DHT22;5184;51.376;7.148;2023-02-15T08:57:05;4.10;99.90
10278;DHT22;5184;51.376;7.148;2023-02-15T08:59:32;3.90;99.90
10278;DHT22;5184;51.376;7.148;2023-02-15T09:01:58;3.70;99.90
10278;DHT22;5184;51.376;7.148;2023-02-15T09:04:26;3.50;1.00
10278;DHT22;5184;51.376;7.148;2023-02-15T09:06:52;3.50;1.00
10278;DHT22;5184;51.376;7.148;2023-02-15T09:09:20;3.50;1.00
10278;DHT22;5184;51.376;7.148;2023-02-15T09:11:49;3.60;1.00
10278;DHT22;5184;51.376;7.148;2023-02-15T09:14:17;3.50;1.00
10278;DHT22;5184;51.376;7.148;2023-02-15T09:16:44;3.70;1.00
10278;DHT22;5184;51.376;7.148;2023-02-15T09:19:10;3.70;1.00
10278;DHT22;5184;51.376;7.148;2023-02-15T09:21:37;3.80;1.00
10278;DHT22;5184;51.376;7.148;2023-02-15T09:24:05;4.00;1.00
10278;DHT22;5184;51.376;7.148;2023-02-15T09:26:32;4.10;1.00
10278;DHT22;5184;51.376;7.148;2023-02-15T09:28:58;4.20;1.00
10278;DHT22;5184;51.376;7.148;2023-02-15T09:31:25;4.30;99.90
10278;DHT22;5184;51.376;7.148;2023-02-15T09:33:51;4.70;1.00
10278;DHT22;5184;51.376;7.148;2023-02-15T09:36:21;5.00;99.90
10278;DHT22;5184;51.376;7.148;2023-02-15T09:38:47;5.00;99.90
10278;DHT22;5184;51.376;7.148;2023-02-15T09:41:36;5.20;99.90
10278;DHT22;5184;51.376;7.148;2023-02-15T09:44:10;5.30;1.00
10278;DHT22;5184;51.376;7.148;2023-02-15T09:46:55;5.30;1.00
10278;DHT22;5184;51.376;7.148;2023-02-15T09:56:06;5.80;99.90
10278;DHT22;5184;51.376;7.148;2023-02-15T09:57:47;6.30;99.90
10278;DHT22;5184;51.376;7.148;2023-02-15T10:00:22;6.70;99.90
10278;DHT22;5184;51.376;7.148;2023-02-15T10:05:25;7.20;99.90
10278;DHT22;5184;51.376;7.148;2023-02-15T10:08:13;7.40;1.00
10278;DHT22;5184;51.376;7.148;2023-02-15T10:10:45;7.50;1.00
10278;DHT22;5184;51.376;7.148;2023-02-15T10:13:27;7.70;91.70
10278;DHT22;5184;51.376;7.148;2023-02-15T10:15:53;7.80;1.00
10278;DHT22;5184;51.376;7.148;2023-02-15T10:18:23;8.10;1.00
10278;DHT22;5184;51.376;7.148;2023-02-15T10:20:56;8.30;1.00
10278;DHT22;5184;51.376;7.148;2023-02-15T10:23:31;8.60;99.90
10278;DHT22;5184;51.376;7.148;2023-02-15T10:28:28;8.80;99.90
10278;DHT22;5184;51.376;7.148;2023-02-15T10:30:57;8.80;99.90
10278;DHT22;5184;51.376;7.148;2023-02-15T10:33:34;9.00;99.90
10278;DHT22;5184;51.376;7.148;2023-02-15T10:36:11;9.20;99.90
10278;DHT22;5184;51.376;7.148;2023-02-15T10:38:44;9.30;99.90
10278;DHT22;5184;51.376;7.148;2023-02-15T10:41:20;9.40;99.90
10278;DHT22;5184;51.376;7.148;2023-02-15T10:46:55;9.70;1.00
10278;DHT22;5184;51.376;7.148;2023-02-15T10:51:58;9.80;1.00
10278;DHT22;5184;51.376;7.148;2023-02-15T10:54:29;9.90;1.00
10278;DHT22;5184;51.376;7.148;2023-02-15T10:59:49;10.10;1.00
10278;DHT22;5184;51.376;7.148;2023-02-15T11:02:38;10.10;1.00
10278;DHT22;5184;51.376;7.148;2023-02-15T11:06:09;10.20;1.00
10278;DHT22;5184;51.376;7.148;2023-02-15T11:07:45;10.40;1.00
10278;DHT22;5184;51.376;7.148;2023-02-15T11:10:30;10.50;99.90
10278;DHT22;5184;51.376;7.148;2023-02-15T11:12:56;10.60;1.00
10278;DHT22;5184;51.376;7.148;2023-02-15T11:15:41;10.50;1.00
10278;DHT22;5184;51.376;7.148;2023-02-15T11:18:11;10.60;99.90
10278;DHT22;5184;51.376;7.148;2023-02-15T11:20:37;10.80;99.90
10278;DHT22;5184;51.376;7.148;2023-02-15T11:23:07;11.00;99.90
10278;DHT22;5184;51.376;7.148;2023-02-15T11:25:30;11.00;99.90
10278;DHT22;5184;51.376;7.148;2023-02-15T11:27:56;11.00;99.90
10278;DHT22;5184;51.376;7.148;2023-02-15T11:30:24;11.00;99.90
10278;DHT22;5184;51.376;7.148;2023-02-15T11:32:52;11.10;99.90
10278;DHT22;5184;51.376;7.148;2023-02-15T11:35:22;11.20;99.90
10278;DHT22;5184;51.376;7.148;2023-02-15T11:37:48;11.30;99.90
10278;DHT22;5184;51.376;7.148;2023-02-15T11:40:23;11.40;91.50
10278;DHT22;5184;51.376;7.148;2023-02-15T11:42:47;11.40;90.80
10278;DHT22;5184;51.376;7.148;2023-02-15T11:45:19;11.60;94.10
10278;DHT22;5184;51.376;7.148;2023-02-15T11:47:43;11.50;91.50
10278;DHT22;5184;51.376;7.148;2023-02-15T11:50:13;11.60;26.30
10278;DHT22;5184;51.376;7.148;2023-02-15T11:52:37;11.70;1.00
10278;DHT22;5184;51.376;7.148;2023-02-15T11:55:09;11.70;1.00
10278;DHT22;5184;51.376;7.148;2023-02-15T11:57:36;11.70;1.00
10278;DHT22;5184;51.376;7.148;2023-02-15T12:02:46;11.80;43.50
10278;DHT22;5184;51.376;7.148;2023-02-15T12:05:13;12.10;1.00
10278;DHT22;5184;51.376;7.148;2023-02-15T12:07:46;12.10;1.00
10278;DHT22;5184;51.376;7.148;2023-02-15T12:10:29;12.20;1.00
10278;DHT22;5184;51.376;7.148;2023-02-15T12:13:11;12.30;1.00
10278;DHT22;5184;51.376;7.148;2023-02-15T12:15:36;12.30;1.00
10278;DHT22;5184;51.376;7.148;2023-02-15T12:18:03;12.20;1.00
10278;DHT22;5184;51.376;7.148;2023-02-15T12:20:31;12.20;1.00
10278;DHT22;5184;51.376;7.148;2023-02-15T12:23:01;12.20;1.00
10278;DHT22;5184;51.376;7.148;2023-02-15T12:25:36;12.20;99.90
10278;DHT22;5184;51.376;7.148;2023-02-15T12:28:03;12.30;99.90
10278;DHT22;5184;51.376;7.148;2023-02-15T12:30:31;12.30;99.90
10278;DHT22;5184;51.376;7.148;2023-02-15T12:32:59;12.30;99.90
10278;DHT22;5184;51.376;7.148;2023-02-15T12:35:32;12.30;99.90
10278;DHT22;5184;51.376;7.148;2023-02-15T12:38:05;12.30;99.90
10278;DHT22;5184;51.376;7.148;2023-02-15T12:40:32;12.30;99.90
10278;DHT22;5184;51.376;7.148;2023-02-15T12:42:57;12.30;99.90
10278;DHT22;5184;51.376;7.148;2023-02-15T12:45:33;12.50;99.90
10278;DHT22;5184;51.376;7.148;2023-02-15T12:48:17;12.40;99.90
10278;DHT22;5184;51.376;7.148;2023-02-15T12:50:48;12.60;99.90
10278;DHT22;5184;51.376;7.148;2023-02-15T12:53:20;12.50;99.90
10278;DHT22;5184;51.376;7.148;2023-02-15T12:55:54;12.60;99.90
10278;DHT22;5184;51.376;7.148;2023-02-15T12:58:22;12.60;99.90
10278;DHT22;5184;51.376;7.148;2023-02-15T13:00:48;12.70;99.90
10278;DHT22;5184;51.376;7.148;2023-02-15T13:03:18;12.80;99.90
10278;DHT22;5184;51.376;7.148;2023-02-15T13:05:44;12.90;99.90
10278;DHT22;5184;51.376;7.148;2023-02-15T13:08:14;12.90;99.90
10278;DHT22;5184;51.376;7.148;2023-02-15T13:10:51;13.00;99.90
10278;DHT22;5184;51.376;7.148;2023-02-15T13:13:11;13.00;99.90
10278;DHT22;5184;51.376;7.148;2023-02-15T13:15:39;13.00;99.90
10278;DHT22;5184;51.376;7.148;2023-02-15T13:18:10;13.00;99.90
10278;DHT22;5184;51.376;7.148;2023-02-15T13:20:32;13.00;99.90
10278;DHT22;5184;51.376;7.148;2023-02-15T13:23:03;13.00;99.90
10278;DHT22;5184;51.376;7.148;2023-02-15T13:25:29;13.10;99.90
10278;DHT22;5184;51.376;7.148;2023-02-15T13:27:56;13.10;99.90
10278;DHT22;5184;51.376;7.148;2023-02-15T13:30:24;13.20;99.90
10278;DHT22;5184;51.376;7.148;2023-02-15T13:32:49;13.20;99.90
10278;DHT22;5184;51.376;7.148;2023-02-15T13:35:17;13.40;99.90
10278;DHT22;5184;51.376;7.148;2023-02-15T13:40:37;13.50;99.90
10278;DHT22;5184;51.376;7.148;2023-02-15T13:43:17;13.60;99.90
10278;DHT22;5184;51.376;7.148;2023-02-15T13:46:03;13.70;99.90
10278;DHT22;5184;51.376;7.148;2023-02-15T13:48:45;13.80;99.90
10278;DHT22;5184;51.376;7.148;2023-02-15T13:54:11;13.80;99.90
10278;DHT22;5184;51.376;7.148;2023-02-15T13:56:40;13.80;99.90
10278;DHT22;5184;51.376;7.148;2023-02-15T14:08:12;14.00;99.90
10278;DHT22;5184;51.376;7.148;2023-02-15T14:10:43;14.10;99.90
10278;DHT22;5184;51.376;7.148;2023-02-15T14:13:22;14.00;99.90
10278;DHT22;5184;51.376;7.148;2023-02-15T14:15:50;14.10;99.90
10278;DHT22;5184;51.376;7.148;2023-02-15T14:18:39;14.20;99.90
10278;DHT22;5184;51.376;7.148;2023-02-15T14:21:10;14.20;99.90
10278;DHT22;5184;51.376;7.148;2023-02-15T14:23:58;14.20;99.90
10278;DHT22;5184;51.376;7.148;2023-02-15T14:26:38;14.20;99.90
10278;DHT22;5184;51.376;7.148;2023-02-15T14:31:41;14.20;99.90
10278;DHT22;5184;51.376;7.148;2023-02-15T14:34:08;14.20;99.90
10278;DHT22;5184;51.376;7.148;2023-02-15T14:36:34;14.30;99.90
10278;DHT22;5184;51.376;7.148;2023-02-15T14:39:15;14.30;99.90
10278;DHT22;5184;51.376;7.148;2023-02-15T14:41:44;14.30;99.90
10278;DHT22;5184;51.376;7.148;2023-02-15T14:44:13;14.30;98.40
10278;DHT22;5184;51.376;7.148;2023-02-15T14:46:58;14.30;98.10
10278;DHT22;5184;51.376;7.148;2023-02-15T14:49:26;14.30;99.90
10278;DHT22;5184;51.376;7.148;2023-02-15T14:51:54;14.30;95.00
10278;DHT22;5184;51.376;7.148;2023-02-15T14:57:21;14.20;99.90
10278;DHT22;5184;51.376;7.148;2023-02-15T14:59:59;14.20;99.90
10278;DHT22;5184;51.376;7.148;2023-02-15T15:02:27;14.20;99.90
10278;DHT22;5184;51.376;7.148;2023-02-15T15:07:46;14.10;99.90
10278;DHT22;5184;51.376;7.148;2023-02-15T15:10:33;14.00;99.90
10278;DHT22;5184;51.376;7.148;2023-02-15T15:12:59;14.00;99.90
10278;DHT22;5184;51.376;7.148;2023-02-15T15:18:09;13.80;99.90
10278;DHT22;5184;51.376;7.148;2023-02-15T15:20:38;13.80;99.90
10278;DHT22;5184;51.376;7.148;2023-02-15T15:25:57;13.70;99.90
10278;DHT22;5184;51.376;7.148;2023-02-15T15:36:46;13.20;99.90
10278;DHT22;5184;51.376;7.148;2023-02-15T15:42:06;13.10;99.90
10278;DHT22;5184;51.376;7.148;2023-02-15T15:49:45;12.80;99.90
10278;DHT22;5184;51.376;7.148;2023-02-15T15:52:14;12.70;99.90
10278;DHT22;5184;51.376;7.148;2023-02-15T15:54:40;12.60;99.90
10278;DHT22;5184;51.376;7.148;2023-02-15T15:57:12;12.60;99.90
10278;DHT22;5184;51.376;7.148;2023-02-15T15:59:34;12.50;99.90
10278;DHT22;5184;51.376;7.148;2023-02-15T16:02:04;12.40;99.90
10278;DHT22;5184;51.376;7.148;2023-02-15T16:04:31;12.30;99.90
10278;DHT22;5184;51.376;7.148;2023-02-15T16:06:57;12.20;99.90
10278;DHT22;5184;51.376;7.148;2023-02-15T16:09:25;12.00;99.90
10278;DHT22;5184;51.376;7.148;2023-02-15T16:11:52;11.70;99.90
10278;DHT22;5184;51.376;7.148;2023-02-15T16:14:25;11.60;99.90
10278;DHT22;5184;51.376;7.148;2023-02-15T16:16:51;11.50;99.90
10278;DHT22;5184;51.376;7.148;2023-02-15T16:19:27;11.40;99.90
10278;DHT22;5184;51.376;7.148;2023-02-15T16:21:52;11.30;99.90
10278;DHT22;5184;51.376;7.148;2023-02-15T16:27:27;11.00;1.00
10278;DHT22;5184;51.376;7.148;2023-02-15T16:29:50;10.90;1.00
10278;DHT22;5184;51.376;7.148;2023-02-15T16:32:21;10.70;1.00
10278;DHT22;5184;51.376;7.148;2023-02-15T16:34:51;10.60;1.00
10278;DHT22;5184;51.376;7.148;2023-02-15T16:37:18;10.40;1.00
10278;DHT22;5184;51.376;7.148;2023-02-15T16:39:44;10.30;1.00
10278;DHT22;5184;51.376;7.148;2023-02-15T16:42:11;10.10;1.00
10278;DHT22;5184;51.376;7.148;2023-02-15T16:44:38;10.00;1.00
10278;DHT22;5184;51.376;7.148;2023-02-15T16:47:05;9.70;99.90
10278;DHT22;5184;51.376;7.148;2023-02-15T16:49:32;9.70;99.90
10278;DHT22;5184;51.376;7.148;2023-02-15T16:52:00;9.60;99.90
10278;DHT22;5184;51.376;7.148;2023-02-15T16:54:27;9.50;99.90
10278;DHT22;5184;51.376;7.148;2023-02-15T16:56:54;9.50;99.90
10278;DHT22;5184;51.376;7.148;2023-02-15T16:59:27;9.40;99.90
10278;DHT22;5184;51.376;7.148;2023-02-15T17:01:48;9.40;99.90
10278;DHT22;5184;51.376;7.148;2023-02-15T17:04:30;9.40;99.90
10278;DHT22;5184;51.376;7.148;2023-02-15T17:07:00;9.20;99.90
10278;DHT22;5184;51.376;7.148;2023-02-15T17:09:25;9.10;99.90
10278;DHT22;5184;51.376;7.148;2023-02-15T17:11:53;9.00;1.00
10278;DHT22;5184;51.376;7.148;2023-02-15T17:14:21;8.90;1.00
10278;DHT22;5184;51.376;7.148;2023-02-15T17:16:48;8.80;1.00
10278;DHT22;5184;51.376;7.148;2023-02-15T17:19:17;8.80;1.00
10278;DHT22;5184;51.376;7.148;2023-02-15T17:21:46;8.70;1.00
10278;DHT22;5184;51.376;7.148;2023-02-15T17:24:15;8.60;1.00
10278;DHT22;5184;51.376;7.148;2023-02-15T17:26:36;8.60;1.00
10278;DHT22;5184;51.376;7.148;2023-02-15T17:29:17;8.60;1.00